Página principal
METAR-TAF:

METAR-TAF

Aeroportos :

Damasco, Síria

Aeroporto Internacional de Damasco

latitude: 33-25N, longitude: 036-31E, altura: 608 m

Observação actual do tempo

O boletim foi feito há 1 hora e 40 minutos, às 22:00 UTC
Vento 6 kt de nordeste
Temperatura 14°C
Humidade 28%
Pressão 1018 hPa
Visibilidade 10 km ou mais
sem nuvens abaixo de 1500 metros e sem cumulonimbus

METAR: OSDI 192200Z 04006KT CAVOK 14/M04 Q1018

Hora: 02:40 (23:40 UTC)

Previsão

Previsão válida de 20 às 00 UTC a 21 às 06 UTC
Vento 3 kt com direcção variável
Visibilidade 10 km ou mais
sem nuvens abaixo de 1500 metros e sem cumulonimbus
Temporariamente
de 20 às 09 UTC a 20 às 18 UTC
Vento 10 kt de sudoeste
Visibilidade 10 km ou mais
Poucas nuvensa uma altura de 3000 ft

TAF: OSDI 2000/2106 VRB03KT CAVOK TEMPO 2009/2018 22010KT 9999 FEW030

Observações e previsões do tempo de mais de 4000 aeroportos (mensagens METAR e TAF).

As estações disponíveis são os pontos amarelos e vermelhos sobre o mapa.

Mova o rato sobre o mapa para ver o nome da estação.

Depois clique no ponto para visualizar as observações e previsões meteorológicas.

Para alterar o mapa : clique nos botões verdes com uma cruz preta para aumentar o zoom; no botão verde com uma pitada de zoom; ou nas setas verdes para mapas adjacentes.


METAR-TAF: